sensor_id;sensor_type;location;lat;lon;timestamp;temperature;humidity
23311;DHT22;11828;51.508;18.118;2023-02-28T00:01:31;20.80;26.10
23311;DHT22;11828;51.508;18.118;2023-02-28T00:03:57;20.80;26.10
23311;DHT22;11828;51.508;18.118;2023-02-28T00:06:24;20.80;26.20
23311;DHT22;11828;51.508;18.118;2023-02-28T00:08:50;20.80;26.20
23311;DHT22;11828;51.508;18.118;2023-02-28T00:11:16;20.80;26.20
23311;DHT22;11828;51.508;18.118;2023-02-28T00:13:45;20.80;26.10
23311;DHT22;11828;51.508;18.118;2023-02-28T00:16:15;20.80;25.90
23311;DHT22;11828;51.508;18.118;2023-02-28T00:18:43;20.80;25.90
23311;DHT22;11828;51.508;18.118;2023-02-28T00:21:09;20.80;25.90
23311;DHT22;11828;51.508;18.118;2023-02-28T00:23:35;20.80;26.00
23311;DHT22;11828;51.508;18.118;2023-02-28T00:26:02;20.80;26.00
23311;DHT22;11828;51.508;18.118;2023-02-28T00:28:29;20.80;26.00
23311;DHT22;11828;51.508;18.118;2023-02-28T00:30:55;20.80;26.00
23311;DHT22;11828;51.508;18.118;2023-02-28T00:33:23;20.70;25.90
23311;DHT22;11828;51.508;18.118;2023-02-28T00:35:49;20.80;26.10
23311;DHT22;11828;51.508;18.118;2023-02-28T00:38:15;20.70;25.90
23311;DHT22;11828;51.508;18.118;2023-02-28T00:40:42;20.70;25.80
23311;DHT22;11828;51.508;18.118;2023-02-28T00:43:08;20.70;25.90
23311;DHT22;11828;51.508;18.118;2023-02-28T00:45:34;20.70;26.00
23311;DHT22;11828;51.508;18.118;2023-02-28T00:48:00;20.70;26.00
23311;DHT22;11828;51.508;18.118;2023-02-28T00:50:27;20.70;26.00
23311;DHT22;11828;51.508;18.118;2023-02-28T00:52:53;20.70;25.90
23311;DHT22;11828;51.508;18.118;2023-02-28T00:55:19;20.70;26.10
23311;DHT22;11828;51.508;18.118;2023-02-28T00:57:45;20.70;26.20
23311;DHT22;11828;51.508;18.118;2023-02-28T01:00:12;20.70;26.20
23311;DHT22;11828;51.508;18.118;2023-02-28T01:02:38;20.70;26.20
23311;DHT22;11828;51.508;18.118;2023-02-28T01:05:05;20.70;26.20
23311;DHT22;11828;51.508;18.118;2023-02-28T01:07:31;20.70;26.20
23311;DHT22;11828;51.508;18.118;2023-02-28T01:09:57;20.70;26.20
23311;DHT22;11828;51.508;18.118;2023-02-28T01:12:24;20.70;26.10
23311;DHT22;11828;51.508;18.118;2023-02-28T01:14:50;20.70;26.20
23311;DHT22;11828;51.508;18.118;2023-02-28T01:17:16;20.70;26.20
23311;DHT22;11828;51.508;18.118;2023-02-28T01:19:42;20.70;26.40
23311;DHT22;11828;51.508;18.118;2023-02-28T01:22:08;20.70;26.40
23311;DHT22;11828;51.508;18.118;2023-02-28T01:24:35;20.70;26.40
23311;DHT22;11828;51.508;18.118;2023-02-28T01:27:01;20.60;26.40
23311;DHT22;11828;51.508;18.118;2023-02-28T01:29:28;20.60;26.40
23311;DHT22;11828;51.508;18.118;2023-02-28T01:31:54;20.60;26.50
23311;DHT22;11828;51.508;18.118;2023-02-28T01:34:20;20.60;26.40
23311;DHT22;11828;51.508;18.118;2023-02-28T01:36:46;20.60;26.40
23311;DHT22;11828;51.508;18.118;2023-02-28T01:39:12;20.90;26.50
23311;DHT22;11828;51.508;18.118;2023-02-28T01:41:39;20.60;26.40
23311;DHT22;11828;51.508;18.118;2023-02-28T01:44:53;20.70;26.30
23311;DHT22;11828;51.508;18.118;2023-02-28T01:47:11;20.70;26.20
23311;DHT22;11828;51.508;18.118;2023-02-28T01:49:37;20.60;26.40
23311;DHT22;11828;51.508;18.118;2023-02-28T01:52:04;20.60;26.40
23311;DHT22;11828;51.508;18.118;2023-02-28T01:54:31;20.60;26.40
23311;DHT22;11828;51.508;18.118;2023-02-28T01:57:12;20.50;26.30
23311;DHT22;11828;51.508;18.118;2023-02-28T02:00:02;20.50;26.40
23311;DHT22;11828;51.508;18.118;2023-02-28T02:02:39;20.40;26.70
23311;DHT22;11828;51.508;18.118;2023-02-28T02:05:16;20.30;26.70
23311;DHT22;11828;51.508;18.118;2023-02-28T02:07:51;20.30;26.80
23311;DHT22;11828;51.508;18.118;2023-02-28T02:10:21;20.20;26.90
23311;DHT22;11828;51.508;18.118;2023-02-28T02:19:00;20.10;27.10
23311;DHT22;11828;51.508;18.118;2023-02-28T02:36:51;19.40;27.60
23311;DHT22;11828;51.508;18.118;2023-02-28T02:42:29;19.30;27.70
23311;DHT22;11828;51.508;18.118;2023-02-28T02:48:18;19.20;27.80
23311;DHT22;11828;51.508;18.118;2023-02-28T02:50:49;19.20;27.80
23311;DHT22;11828;51.508;18.118;2023-02-28T02:53:34;19.10;27.80
23311;DHT22;11828;51.508;18.118;2023-02-28T02:56:03;19.10;27.80
23311;DHT22;11828;51.508;18.118;2023-02-28T02:58:38;19.10;27.80
23311;DHT22;11828;51.508;18.118;2023-02-28T03:01:12;19.10;27.80
23311;DHT22;11828;51.508;18.118;2023-02-28T03:04:01;19.10;27.80
23311;DHT22;11828;51.508;18.118;2023-02-28T03:06:29;19.10;27.80
23311;DHT22;11828;51.508;18.118;2023-02-28T03:08:56;19.00;27.70
23311;DHT22;11828;51.508;18.118;2023-02-28T03:11:22;19.00;27.70
23311;DHT22;11828;51.508;18.118;2023-02-28T03:23:13;18.80;27.80
23311;DHT22;11828;51.508;18.118;2023-02-28T03:28:31;18.70;27.90
23311;DHT22;11828;51.508;18.118;2023-02-28T03:33:59;18.70;28.00
23311;DHT22;11828;51.508;18.118;2023-02-28T03:36:32;18.70;28.00
23311;DHT22;11828;51.508;18.118;2023-02-28T03:39:31;18.70;28.10
23311;DHT22;11828;51.508;18.118;2023-02-28T03:42:21;18.60;28.10
23311;DHT22;11828;51.508;18.118;2023-02-28T03:44:59;18.60;28.10
23311;DHT22;11828;51.508;18.118;2023-02-28T03:47:32;18.60;28.20
23311;DHT22;11828;51.508;18.118;2023-02-28T03:50:16;18.60;28.30
23311;DHT22;11828;51.508;18.118;2023-02-28T03:52:53;18.50;28.20
23311;DHT22;11828;51.508;18.118;2023-02-28T03:55:29;18.50;28.30
23311;DHT22;11828;51.508;18.118;2023-02-28T04:01:23;18.40;28.40
23311;DHT22;11828;51.508;18.118;2023-02-28T04:03:51;18.40;28.40
23311;DHT22;11828;51.508;18.118;2023-02-28T04:06:20;18.40;28.40
23311;DHT22;11828;51.508;18.118;2023-02-28T04:08:48;18.30;28.30
23311;DHT22;11828;51.508;18.118;2023-02-28T04:11:34;18.40;28.30
23311;DHT22;11828;51.508;18.118;2023-02-28T04:14:05;18.30;28.30
23311;DHT22;11828;51.508;18.118;2023-02-28T04:16:34;18.30;28.10
23311;DHT22;11828;51.508;18.118;2023-02-28T04:19:06;18.20;28.00
23311;DHT22;11828;51.508;18.118;2023-02-28T04:21:36;18.20;28.10
23311;DHT22;11828;51.508;18.118;2023-02-28T04:24:06;18.20;28.00
23311;DHT22;11828;51.508;18.118;2023-02-28T04:26:34;18.20;28.00
23311;DHT22;11828;51.508;18.118;2023-02-28T04:29:04;18.20;27.90
23311;DHT22;11828;51.508;18.118;2023-02-28T04:31:31;18.30;27.90
23311;DHT22;11828;51.508;18.118;2023-02-28T04:33:57;18.20;27.80
23311;DHT22;11828;51.508;18.118;2023-02-28T04:36:24;18.20;27.80
23311;DHT22;11828;51.508;18.118;2023-02-28T04:38:50;18.30;27.90
23311;DHT22;11828;51.508;18.118;2023-02-28T04:41:17;18.30;28.00
23311;DHT22;11828;51.508;18.118;2023-02-28T04:43:43;18.20;27.90
23311;DHT22;11828;51.508;18.118;2023-02-28T04:46:09;18.20;27.80
23311;DHT22;11828;51.508;18.118;2023-02-28T04:48:37;18.20;27.70
23311;DHT22;11828;51.508;18.118;2023-02-28T04:51:07;18.20;27.60
23311;DHT22;11828;51.508;18.118;2023-02-28T04:53:36;18.20;27.60
23311;DHT22;11828;51.508;18.118;2023-02-28T04:56:03;18.20;27.60
23311;DHT22;11828;51.508;18.118;2023-02-28T04:58:30;18.10;27.60
23311;DHT22;11828;51.508;18.118;2023-02-28T05:03:30;18.10;27.70
23311;DHT22;11828;51.508;18.118;2023-02-28T05:05:56;18.00;27.70
23311;DHT22;11828;51.508;18.118;2023-02-28T05:08:22;18.00;27.90
23311;DHT22;11828;51.508;18.118;2023-02-28T05:10:49;17.90;27.90
23311;DHT22;11828;51.508;18.118;2023-02-28T05:13:15;17.90;27.80
23311;DHT22;11828;51.508;18.118;2023-02-28T05:15:41;17.90;27.80
23311;DHT22;11828;51.508;18.118;2023-02-28T05:18:08;17.90;27.80
23311;DHT22;11828;51.508;18.118;2023-02-28T05:20:34;17.80;27.80
23311;DHT22;11828;51.508;18.118;2023-02-28T05:23:01;17.80;27.80
23311;DHT22;11828;51.508;18.118;2023-02-28T05:25:29;17.80;27.90
23311;DHT22;11828;51.508;18.118;2023-02-28T05:27:55;17.80;28.00
23311;DHT22;11828;51.508;18.118;2023-02-28T05:30:21;17.80;28.00
23311;DHT22;11828;51.508;18.118;2023-02-28T05:32:50;17.70;27.90
23311;DHT22;11828;51.508;18.118;2023-02-28T05:35:17;17.70;27.80
23311;DHT22;11828;51.508;18.118;2023-02-28T05:37:44;17.70;27.70
23311;DHT22;11828;51.508;18.118;2023-02-28T05:40:10;17.70;27.70
23311;DHT22;11828;51.508;18.118;2023-02-28T05:42:37;17.70;27.60
23311;DHT22;11828;51.508;18.118;2023-02-28T05:45:05;17.70;27.60
23311;DHT22;11828;51.508;18.118;2023-02-28T05:47:32;17.70;27.40
23311;DHT22;11828;51.508;18.118;2023-02-28T05:49:58;17.80;27.50
23311;DHT22;11828;51.508;18.118;2023-02-28T05:52:25;17.80;27.50
23311;DHT22;11828;51.508;18.118;2023-02-28T05:54:52;17.80;27.50
23311;DHT22;11828;51.508;18.118;2023-02-28T05:57:18;17.80;27.50
23311;DHT22;11828;51.508;18.118;2023-02-28T05:59:44;17.80;27.30
23311;DHT22;11828;51.508;18.118;2023-02-28T06:02:13;17.80;27.20
23311;DHT22;11828;51.508;18.118;2023-02-28T06:04:40;17.80;27.10
23311;DHT22;11828;51.508;18.118;2023-02-28T06:07:08;17.80;27.00
23311;DHT22;11828;51.508;18.118;2023-02-28T06:09:35;17.80;27.00
23311;DHT22;11828;51.508;18.118;2023-02-28T06:12:03;17.90;27.00
23311;DHT22;11828;51.508;18.118;2023-02-28T06:14:32;18.00;27.00
23311;DHT22;11828;51.508;18.118;2023-02-28T06:17:00;18.10;26.80
23311;DHT22;11828;51.508;18.118;2023-02-28T06:19:26;18.30;26.60
23311;DHT22;11828;51.508;18.118;2023-02-28T06:21:55;18.30;26.40
23311;DHT22;11828;51.508;18.118;2023-02-28T06:24:23;18.40;26.20
23311;DHT22;11828;51.508;18.118;2023-02-28T06:26:50;18.50;26.00
23311;DHT22;11828;51.508;18.118;2023-02-28T06:29:16;18.60;26.10
23311;DHT22;11828;51.508;18.118;2023-02-28T06:31:45;18.70;26.10
23311;DHT22;11828;51.508;18.118;2023-02-28T06:34:12;18.80;26.10
23311;DHT22;11828;51.508;18.118;2023-02-28T06:36:40;18.90;26.10
23311;DHT22;11828;51.508;18.118;2023-02-28T06:39:07;19.00;26.10
23311;DHT22;11828;51.508;18.118;2023-02-28T06:41:34;19.20;26.20
23311;DHT22;11828;51.508;18.118;2023-02-28T06:44:12;19.50;26.10
23311;DHT22;11828;51.508;18.118;2023-02-28T06:46:43;19.80;26.00
23311;DHT22;11828;51.508;18.118;2023-02-28T06:49:10;20.40;25.80
23311;DHT22;11828;51.508;18.118;2023-02-28T06:51:39;21.10;25.30
23311;DHT22;11828;51.508;18.118;2023-02-28T06:54:07;21.70;24.70
23311;DHT22;11828;51.508;18.118;2023-02-28T06:56:36;22.40;24.10
23311;DHT22;11828;51.508;18.118;2023-02-28T06:59:03;23.20;23.40
23311;DHT22;11828;51.508;18.118;2023-02-28T07:01:30;23.80;22.60
23311;DHT22;11828;51.508;18.118;2023-02-28T07:03:57;24.40;22.10
23311;DHT22;11828;51.508;18.118;2023-02-28T07:06:24;25.00;21.50
23311;DHT22;11828;51.508;18.118;2023-02-28T07:08:51;25.40;21.00
23311;DHT22;11828;51.508;18.118;2023-02-28T07:11:20;25.70;20.60
23311;DHT22;11828;51.508;18.118;2023-02-28T07:13:49;26.00;20.30
23311;DHT22;11828;51.508;18.118;2023-02-28T07:16:16;26.40;20.00
23311;DHT22;11828;51.508;18.118;2023-02-28T07:18:43;26.80;19.20
23311;DHT22;11828;51.508;18.118;2023-02-28T07:21:10;27.00;19.10
23311;DHT22;11828;51.508;18.118;2023-02-28T07:23:37;27.30;18.90
23311;DHT22;11828;51.508;18.118;2023-02-28T07:26:11;27.70;18.40
23311;DHT22;11828;51.508;18.118;2023-02-28T07:28:41;27.90;18.00
23311;DHT22;11828;51.508;18.118;2023-02-28T07:31:11;28.20;18.00
23311;DHT22;11828;51.508;18.118;2023-02-28T07:33:40;28.50;17.40
23311;DHT22;11828;51.508;18.118;2023-02-28T07:36:12;28.60;17.20
23311;DHT22;11828;51.508;18.118;2023-02-28T07:38:45;28.90;17.20
23311;DHT22;11828;51.508;18.118;2023-02-28T07:41:15;29.10;16.80
23311;DHT22;11828;51.508;18.118;2023-02-28T07:43:42;29.10;16.90
23311;DHT22;11828;51.508;18.118;2023-02-28T07:46:12;29.20;16.50
23311;DHT22;11828;51.508;18.118;2023-02-28T07:48:41;29.30;16.50
23311;DHT22;11828;51.508;18.118;2023-02-28T07:51:07;29.30;16.20
23311;DHT22;11828;51.508;18.118;2023-02-28T07:53:33;29.60;16.20
23311;DHT22;11828;51.508;18.118;2023-02-28T07:56:01;29.70;15.90
23311;DHT22;11828;51.508;18.118;2023-02-28T07:58:29;29.80;15.90
23311;DHT22;11828;51.508;18.118;2023-02-28T08:00:56;30.00;15.70
23311;DHT22;11828;51.508;18.118;2023-02-28T08:03:23;30.20;15.80
23311;DHT22;11828;51.508;18.118;2023-02-28T08:05:50;30.40;15.60
23311;DHT22;11828;51.508;18.118;2023-02-28T08:08:18;30.60;15.50
23311;DHT22;11828;51.508;18.118;2023-02-28T08:10:45;30.90;15.20
23311;DHT22;11828;51.508;18.118;2023-02-28T08:13:11;31.20;14.90
23311;DHT22;11828;51.508;18.118;2023-02-28T08:15:37;31.60;14.90
23311;DHT22;11828;51.508;18.118;2023-02-28T08:18:03;31.70;14.70
23311;DHT22;11828;51.508;18.118;2023-02-28T08:20:30;32.10;14.50
23311;DHT22;11828;51.508;18.118;2023-02-28T08:22:56;32.60;14.40
23311;DHT22;11828;51.508;18.118;2023-02-28T08:25:22;33.10;14.30
23311;DHT22;11828;51.508;18.118;2023-02-28T08:27:51;33.60;14.00
23311;DHT22;11828;51.508;18.118;2023-02-28T08:30:18;34.00;13.90
23311;DHT22;11828;51.508;18.118;2023-02-28T08:32:44;34.40;13.70
23311;DHT22;11828;51.508;18.118;2023-02-28T08:35:10;34.70;14.10
23311;DHT22;11828;51.508;18.118;2023-02-28T08:37:36;35.10;13.20
23311;DHT22;11828;51.508;18.118;2023-02-28T08:40:03;35.20;13.10
23311;DHT22;11828;51.508;18.118;2023-02-28T08:42:29;35.50;13.00
23311;DHT22;11828;51.508;18.118;2023-02-28T08:44:56;35.70;13.00
23311;DHT22;11828;51.508;18.118;2023-02-28T08:47:22;35.80;12.90
23311;DHT22;11828;51.508;18.118;2023-02-28T08:49:49;35.80;12.70
23311;DHT22;11828;51.508;18.118;2023-02-28T08:52:14;36.00;13.30
23311;DHT22;11828;51.508;18.118;2023-02-28T08:54:41;36.10;12.50
23311;DHT22;11828;51.508;18.118;2023-02-28T08:57:07;36.40;12.60
23311;DHT22;11828;51.508;18.118;2023-02-28T08:59:34;36.70;12.50
23311;DHT22;11828;51.508;18.118;2023-02-28T09:02:00;36.90;12.30
23311;DHT22;11828;51.508;18.118;2023-02-28T09:04:26;36.90;12.10
23311;DHT22;11828;51.508;18.118;2023-02-28T09:06:52;36.90;12.10
23311;DHT22;11828;51.508;18.118;2023-02-28T09:09:19;37.00;12.20
23311;DHT22;11828;51.508;18.118;2023-02-28T09:11:45;37.40;12.10
23311;DHT22;11828;51.508;18.118;2023-02-28T09:14:11;37.80;12.10
23311;DHT22;11828;51.508;18.118;2023-02-28T09:16:37;37.90;11.90
23311;DHT22;11828;51.508;18.118;2023-02-28T09:19:03;37.90;11.80
23311;DHT22;11828;51.508;18.118;2023-02-28T09:21:30;37.80;11.80
23311;DHT22;11828;51.508;18.118;2023-02-28T09:23:56;37.90;11.70
23311;DHT22;11828;51.508;18.118;2023-02-28T09:26:24;38.10;11.70
23311;DHT22;11828;51.508;18.118;2023-02-28T09:28:53;38.30;11.40
23311;DHT22;11828;51.508;18.118;2023-02-28T09:31:22;38.40;11.40
23311;DHT22;11828;51.508;18.118;2023-02-28T09:33:52;38.50;11.90
23311;DHT22;11828;51.508;18.118;2023-02-28T09:36:20;38.30;11.30
23311;DHT22;11828;51.508;18.118;2023-02-28T09:38:47;38.20;11.30
23311;DHT22;11828;51.508;18.118;2023-02-28T09:41:21;38.10;11.30
23311;DHT22;11828;51.508;18.118;2023-02-28T09:43:57;38.10;11.20
23311;DHT22;11828;51.508;18.118;2023-02-28T09:46:38;38.20;11.20
23311;DHT22;11828;51.508;18.118;2023-02-28T09:49:12;38.10;11.10
23311;DHT22;11828;51.508;18.118;2023-02-28T09:51:56;37.80;11.10
23311;DHT22;11828;51.508;18.118;2023-02-28T09:54:28;37.70;11.30
23311;DHT22;11828;51.508;18.118;2023-02-28T09:57:01;37.70;11.20
23311;DHT22;11828;51.508;18.118;2023-02-28T10:05:13;37.30;11.10
23311;DHT22;11828;51.508;18.118;2023-02-28T10:13:27;36.60;11.50
23311;DHT22;11828;51.508;18.118;2023-02-28T10:24:32;35.90;11.50
23311;DHT22;11828;51.508;18.118;2023-02-28T10:27:15;35.60;11.40
23311;DHT22;11828;51.508;18.118;2023-02-28T10:29:58;35.00;11.50
23311;DHT22;11828;51.508;18.118;2023-02-28T10:32:27;34.50;11.60
23311;DHT22;11828;51.508;18.118;2023-02-28T10:35:23;34.00;11.90
23311;DHT22;11828;51.508;18.118;2023-02-28T10:37:55;33.60;12.20
23311;DHT22;11828;51.508;18.118;2023-02-28T10:40:31;33.30;12.10
23311;DHT22;11828;51.508;18.118;2023-02-28T10:43:03;32.90;12.20
23311;DHT22;11828;51.508;18.118;2023-02-28T10:45:33;32.60;12.60
23311;DHT22;11828;51.508;18.118;2023-02-28T10:58:59;31.00;13.30
23311;DHT22;11828;51.508;18.118;2023-02-28T11:04:18;31.00;13.30
23311;DHT22;11828;51.508;18.118;2023-02-28T11:06:45;31.00;13.40
23311;DHT22;11828;51.508;18.118;2023-02-28T11:11:55;31.50;13.20
23311;DHT22;11828;51.508;18.118;2023-02-28T11:14:26;31.70;13.20
23311;DHT22;11828;51.508;18.118;2023-02-28T11:16:54;31.90;13.20
23311;DHT22;11828;51.508;18.118;2023-02-28T11:19:37;31.90;13.10
23311;DHT22;11828;51.508;18.118;2023-02-28T11:22:05;31.80;12.90
23311;DHT22;11828;51.508;18.118;2023-02-28T11:24:51;31.70;12.90
23311;DHT22;11828;51.508;18.118;2023-02-28T11:29:59;31.50;12.90
23311;DHT22;11828;51.508;18.118;2023-02-28T11:32:27;31.30;12.90
23311;DHT22;11828;51.508;18.118;2023-02-28T11:37:38;30.80;13.20
23311;DHT22;11828;51.508;18.118;2023-02-28T11:40:16;30.50;12.90
23311;DHT22;11828;51.508;18.118;2023-02-28T12:06:45;28.30;13.90
23311;DHT22;11828;51.508;18.118;2023-02-28T12:12:25;28.40;14.10
23311;DHT22;11828;51.508;18.118;2023-02-28T12:20:53;29.20;13.90
23311;DHT22;11828;51.508;18.118;2023-02-28T12:29:37;30.40;13.70
23311;DHT22;11828;51.508;18.118;2023-02-28T12:32:37;31.20;13.00
23311;DHT22;11828;51.508;18.118;2023-02-28T12:37:58;32.50;13.20
23311;DHT22;11828;51.508;18.118;2023-02-28T12:41:00;32.90;13.10
23311;DHT22;11828;51.508;18.118;2023-02-28T12:43:32;33.60;12.70
23311;DHT22;11828;51.508;18.118;2023-02-28T12:46:15;34.50;12.80
23311;DHT22;11828;51.508;18.118;2023-02-28T12:48:57;35.00;12.50
23311;DHT22;11828;51.508;18.118;2023-02-28T12:51:25;35.60;12.40
23311;DHT22;11828;51.508;18.118;2023-02-28T13:11:25;36.90;11.60
23311;DHT22;11828;51.508;18.118;2023-02-28T13:14:00;36.90;11.60
23311;DHT22;11828;51.508;18.118;2023-02-28T13:19:45;37.10;11.60
23311;DHT22;11828;51.508;18.118;2023-02-28T13:24:54;37.80;11.50
23311;DHT22;11828;51.508;18.118;2023-02-28T13:27:40;37.80;11.70
23311;DHT22;11828;51.508;18.118;2023-02-28T13:33:29;37.60;11.10
23311;DHT22;11828;51.508;18.118;2023-02-28T13:44:20;38.90;11.30
23311;DHT22;11828;51.508;18.118;2023-02-28T13:49:32;38.40;11.30
23311;DHT22;11828;51.508;18.118;2023-02-28T14:06:16;37.20;11.50
23311;DHT22;11828;51.508;18.118;2023-02-28T14:11:35;36.30;11.70
23311;DHT22;11828;51.508;18.118;2023-02-28T14:14:04;36.00;12.20
23311;DHT22;11828;51.508;18.118;2023-02-28T14:19:15;35.50;11.90
23311;DHT22;11828;51.508;18.118;2023-02-28T14:21:56;35.30;12.00
23311;DHT22;11828;51.508;18.118;2023-02-28T14:27:56;34.30;12.30
23311;DHT22;11828;51.508;18.118;2023-02-28T14:36:31;33.30;12.70
23311;DHT22;11828;51.508;18.118;2023-02-28T14:39:21;32.90;12.90
23311;DHT22;11828;51.508;18.118;2023-02-28T14:41:48;32.30;12.90
23311;DHT22;11828;51.508;18.118;2023-02-28T14:44:26;31.90;12.90
23311;DHT22;11828;51.508;18.118;2023-02-28T14:47:03;31.50;13.10
23311;DHT22;11828;51.508;18.118;2023-02-28T14:49:36;31.00;13.10
23311;DHT22;11828;51.508;18.118;2023-02-28T14:52:22;30.70;13.40
23311;DHT22;11828;51.508;18.118;2023-02-28T14:55:13;30.10;13.70
23311;DHT22;11828;51.508;18.118;2023-02-28T14:57:58;29.80;14.10
23311;DHT22;11828;51.508;18.118;2023-02-28T15:00:36;29.30;14.00
23311;DHT22;11828;51.508;18.118;2023-02-28T15:03:39;28.80;14.40
23311;DHT22;11828;51.508;18.118;2023-02-28T15:06:16;28.30;14.70
23311;DHT22;11828;51.508;18.118;2023-02-28T15:08:44;27.90;14.80
23311;DHT22;11828;51.508;18.118;2023-02-28T15:11:15;27.40;15.10
23311;DHT22;11828;51.508;18.118;2023-02-28T15:13:52;26.90;15.40
23311;DHT22;11828;51.508;18.118;2023-02-28T15:16:37;26.40;15.90
23311;DHT22;11828;51.508;18.118;2023-02-28T15:19:13;26.00;16.30
23311;DHT22;11828;51.508;18.118;2023-02-28T15:21:49;25.50;16.60
23311;DHT22;11828;51.508;18.118;2023-02-28T15:26:57;24.60;17.90
23311;DHT22;11828;51.508;18.118;2023-02-28T15:29:27;24.20;17.60
23311;DHT22;11828;51.508;18.118;2023-02-28T15:32:04;23.80;18.00
23311;DHT22;11828;51.508;18.118;2023-02-28T15:34:43;23.50;18.70
23311;DHT22;11828;51.508;18.118;2023-02-28T15:37:39;23.20;18.90
23311;DHT22;11828;51.508;18.118;2023-02-28T15:43:15;22.70;19.00
23311;DHT22;11828;51.508;18.118;2023-02-28T15:45:46;22.60;19.00
23311;DHT22;11828;51.508;18.118;2023-02-28T15:48:30;22.40;19.20
23311;DHT22;11828;51.508;18.118;2023-02-28T15:51:18;22.30;19.60
23311;DHT22;11828;51.508;18.118;2023-02-28T15:54:08;22.20;19.90
23311;DHT22;11828;51.508;18.118;2023-02-28T15:56:45;22.10;19.80
23311;DHT22;11828;51.508;18.118;2023-02-28T15:59:20;22.10;19.90
23311;DHT22;11828;51.508;18.118;2023-02-28T16:02:03;22.00;20.10
23311;DHT22;11828;51.508;18.118;2023-02-28T16:04:36;22.00;20.30
23311;DHT22;11828;51.508;18.118;2023-02-28T16:07:05;21.90;20.40
23311;DHT22;11828;51.508;18.118;2023-02-28T16:09:32;21.90;20.40
23311;DHT22;11828;51.508;18.118;2023-02-28T16:12:01;21.90;20.60
23311;DHT22;11828;51.508;18.118;2023-02-28T16:14:30;21.80;20.60
23311;DHT22;11828;51.508;18.118;2023-02-28T16:17:03;21.90;20.70
23311;DHT22;11828;51.508;18.118;2023-02-28T16:19:31;21.90;20.70
23311;DHT22;11828;51.508;18.118;2023-02-28T16:21:58;21.90;20.70
23311;DHT22;11828;51.508;18.118;2023-02-28T16:24:24;21.80;20.70
23311;DHT22;11828;51.508;18.118;2023-02-28T16:26:52;21.80;20.80
23311;DHT22;11828;51.508;18.118;2023-02-28T16:29:32;21.70;21.00
23311;DHT22;11828;51.508;18.118;2023-02-28T16:32:01;21.50;21.30
23311;DHT22;11828;51.508;18.118;2023-02-28T16:34:28;21.50;21.70
23311;DHT22;11828;51.508;18.118;2023-02-28T16:36:54;21.40;22.00
23311;DHT22;11828;51.508;18.118;2023-02-28T16:39:20;21.30;22.10
23311;DHT22;11828;51.508;18.118;2023-02-28T16:41:47;21.30;22.20
23311;DHT22;11828;51.508;18.118;2023-02-28T16:46:55;21.10;22.30
23311;DHT22;11828;51.508;18.118;2023-02-28T16:49:22;21.10;22.40
23311;DHT22;11828;51.508;18.118;2023-02-28T16:51:48;21.00;22.40
23311;DHT22;11828;51.508;18.118;2023-02-28T16:54:14;20.90;23.00
23311;DHT22;11828;51.508;18.118;2023-02-28T16:56:45;20.90;22.60
23311;DHT22;11828;51.508;18.118;2023-02-28T16:59:19;20.80;22.60
23311;DHT22;11828;51.508;18.118;2023-02-28T17:01:50;20.80;22.70
23311;DHT22;11828;51.508;18.118;2023-02-28T17:04:17;20.80;22.40
23311;DHT22;11828;51.508;18.118;2023-02-28T17:06:44;20.80;22.40
23311;DHT22;11828;51.508;18.118;2023-02-28T17:09:16;20.70;22.50
23311;DHT22;11828;51.508;18.118;2023-02-28T17:11:44;20.60;22.60
23311;DHT22;11828;51.508;18.118;2023-02-28T17:14:10;20.60;22.80
23311;DHT22;11828;51.508;18.118;2023-02-28T17:16:37;20.60;23.00
23311;DHT22;11828;51.508;18.118;2023-02-28T17:19:15;20.50;23.20
23311;DHT22;11828;51.508;18.118;2023-02-28T17:21:43;20.50;23.40
23311;DHT22;11828;51.508;18.118;2023-02-28T17:24:10;20.40;23.50
23311;DHT22;11828;51.508;18.118;2023-02-28T17:26:41;20.40;23.70
23311;DHT22;11828;51.508;18.118;2023-02-28T17:29:19;20.30;23.80
23311;DHT22;11828;51.508;18.118;2023-02-28T17:31:47;20.30;24.00
23311;DHT22;11828;51.508;18.118;2023-02-28T17:34:13;20.20;23.80
23311;DHT22;11828;51.508;18.118;2023-02-28T17:36:46;20.20;23.80
23311;DHT22;11828;51.508;18.118;2023-02-28T17:39:17;20.20;23.80
23311;DHT22;11828;51.508;18.118;2023-02-28T17:41:51;20.20;23.70
23311;DHT22;11828;51.508;18.118;2023-02-28T17:44:19;20.20;23.60
23311;DHT22;11828;51.508;18.118;2023-02-28T17:46:46;20.20;23.40
23311;DHT22;11828;51.508;18.118;2023-02-28T17:49:13;20.10;23.50
23311;DHT22;11828;51.508;18.118;2023-02-28T17:51:39;20.10;23.50
23311;DHT22;11828;51.508;18.118;2023-02-28T17:54:05;20.10;23.40
23311;DHT22;11828;51.508;18.118;2023-02-28T17:56:32;20.10;23.50
23311;DHT22;11828;51.508;18.118;2023-02-28T17:58:59;20.00;23.60
23311;DHT22;11828;51.508;18.118;2023-02-28T18:01:25;20.00;23.60
23311;DHT22;11828;51.508;18.118;2023-02-28T18:03:53;20.00;23.60
23311;DHT22;11828;51.508;18.118;2023-02-28T18:06:30;19.90;23.60
23311;DHT22;11828;51.508;18.118;2023-02-28T18:09:01;19.90;23.80
23311;DHT22;11828;51.508;18.118;2023-02-28T18:11:27;19.90;23.80
23311;DHT22;11828;51.508;18.118;2023-02-28T18:14:07;19.90;23.80
23311;DHT22;11828;51.508;18.118;2023-02-28T18:16:34;19.90;23.90
23311;DHT22;11828;51.508;18.118;2023-02-28T18:19:00;19.80;23.90
23311;DHT22;11828;51.508;18.118;2023-02-28T18:21:29;19.80;24.00
23311;DHT22;11828;51.508;18.118;2023-02-28T18:23:56;19.80;23.90
23311;DHT22;11828;51.508;18.118;2023-02-28T18:26:22;19.70;23.80
23311;DHT22;11828;51.508;18.118;2023-02-28T18:28:49;19.70;23.80
23311;DHT22;11828;51.508;18.118;2023-02-28T18:31:17;19.70;23.80
23311;DHT22;11828;51.508;18.118;2023-02-28T18:33:48;19.60;24.00
23311;DHT22;11828;51.508;18.118;2023-02-28T18:36:15;19.60;24.20
23311;DHT22;11828;51.508;18.118;2023-02-28T18:38:42;19.50;24.30
23311;DHT22;11828;51.508;18.118;2023-02-28T18:41:08;19.50;24.50
23311;DHT22;11828;51.508;18.118;2023-02-28T18:43:36;19.10;24.50
23311;DHT22;11828;51.508;18.118;2023-02-28T18:46:10;19.40;24.80
23311;DHT22;11828;51.508;18.118;2023-02-28T18:48:38;19.30;24.80
23311;DHT22;11828;51.508;18.118;2023-02-28T18:53:38;19.20;24.90
23311;DHT22;11828;51.508;18.118;2023-02-28T18:56:06;19.20;24.80
23311;DHT22;11828;51.508;18.118;2023-02-28T18:58:34;19.20;24.70
23311;DHT22;11828;51.508;18.118;2023-02-28T19:01:01;19.10;24.70
23311;DHT22;11828;51.508;18.118;2023-02-28T19:03:29;19.10;24.60
23311;DHT22;11828;51.508;18.118;2023-02-28T19:05:58;19.20;24.60